sensor_id;sensor_type;location;lat;lon;timestamp;P1;P2;P0
72031;PMS5003;49185;42.320;23.198;2023-02-01T00:01:50;3.00;3.00;1.67
72031;PMS5003;49185;42.320;23.198;2023-02-01T00:04:16;3.00;3.00;1.00
72031;PMS5003;49185;42.320;23.198;2023-02-01T00:06:41;3.00;3.00;1.33
72031;PMS5003;49185;42.320;23.198;2023-02-01T00:09:07;10.67;10.67;4.00
72031;PMS5003;49185;42.320;23.198;2023-02-01T00:11:32;4.67;4.33;3.00
72031;PMS5003;49185;42.320;23.198;2023-02-01T00:13:57;3.00;3.00;2.00
72031;PMS5003;49185;42.320;23.198;2023-02-01T00:16:24;3.00;3.00;1.00
72031;PMS5003;49185;42.320;23.198;2023-02-01T00:18:51;4.00;4.00;0.00
72031;PMS5003;49185;42.320;23.198;2023-02-01T00:21:21;3.00;2.00;0.00
72031;PMS5003;49185;42.320;23.198;2023-02-01T00:23:47;2.00;2.00;0.00
72031;PMS5003;49185;42.320;23.198;2023-02-01T00:26:20;3.00;3.00;0.00
72031;PMS5003;49185;42.320;23.198;2023-02-01T00:28:47;2.00;2.00;0.00
72031;PMS5003;49185;42.320;23.198;2023-02-01T00:31:14;2.00;2.00;0.00
72031;PMS5003;49185;42.320;23.198;2023-02-01T00:33:39;3.00;3.00;0.00
72031;PMS5003;49185;42.320;23.198;2023-02-01T00:36:06;3.00;2.33;0.00
72031;PMS5003;49185;42.320;23.198;2023-02-01T00:38:33;4.00;3.50;0.00
72031;PMS5003;49185;42.320;23.198;2023-02-01T00:41:04;3.00;3.00;0.00
72031;PMS5003;49185;42.320;23.198;2023-02-01T00:43:37;3.00;3.00;0.00
72031;PMS5003;49185;42.320;23.198;2023-02-01T00:46:03;3.00;3.00;0.00
72031;PMS5003;49185;42.320;23.198;2023-02-01T00:48:28;3.00;3.00;0.00
72031;PMS5003;49185;42.320;23.198;2023-02-01T00:50:58;3.00;3.00;0.00
72031;PMS5003;49185;42.320;23.198;2023-02-01T00:53:24;3.00;3.00;0.75
72031;PMS5003;49185;42.320;23.198;2023-02-01T00:55:49;6.67;5.00;1.00
72031;PMS5003;49185;42.320;23.198;2023-02-01T00:58:15;7.00;7.00;2.00
72031;PMS5003;49185;42.320;23.198;2023-02-01T01:00:40;6.67;6.67;1.67
72031;PMS5003;49185;42.320;23.198;2023-02-01T01:03:06;6.33;6.00;3.00
72031;PMS5003;49185;42.320;23.198;2023-02-01T01:05:31;7.00;6.00;3.00
72031;PMS5003;49185;42.320;23.198;2023-02-01T01:07:57;7.00;6.00;3.00
72031;PMS5003;49185;42.320;23.198;2023-02-01T01:10:22;10.00;7.00;3.00
72031;PMS5003;49185;42.320;23.198;2023-02-01T01:12:47;11.33;10.67;3.00
72031;PMS5003;49185;42.320;23.198;2023-02-01T01:15:13;15.00;14.00;6.67
72031;PMS5003;49185;42.320;23.198;2023-02-01T01:17:38;15.00;13.33;6.33
72031;PMS5003;49185;42.320;23.198;2023-02-01T01:20:04;14.67;13.67;6.33
72031;PMS5003;49185;42.320;23.198;2023-02-01T01:22:30;15.75;15.00;6.50
72031;PMS5003;49185;42.320;23.198;2023-02-01T01:24:55;15.33;14.00;6.00
72031;PMS5003;49185;42.320;23.198;2023-02-01T01:27:20;13.00;13.00;5.00
72031;PMS5003;49185;42.320;23.198;2023-02-01T01:29:46;10.00;9.00;3.00
72031;PMS5003;49185;42.320;23.198;2023-02-01T01:32:11;6.00;5.67;3.00
72031;PMS5003;49185;42.320;23.198;2023-02-01T01:34:37;6.00;6.00;3.00
72031;PMS5003;49185;42.320;23.198;2023-02-01T01:37:02;8.33;8.33;3.33
72031;PMS5003;49185;42.320;23.198;2023-02-01T01:39:28;9.33;9.33;3.00
72031;PMS5003;49185;42.320;23.198;2023-02-01T01:41:54;8.25;6.00;3.00
72031;PMS5003;49185;42.320;23.198;2023-02-01T01:47:25;19.50;18.25;9.00
72031;PMS5003;49185;42.320;23.198;2023-02-01T01:49:54;14.75;13.75;4.00
72031;PMS5003;49185;42.320;23.198;2023-02-01T01:52:20;10.50;9.00;2.00
72031;PMS5003;49185;42.320;23.198;2023-02-01T01:54:47;12.75;10.50;4.00
72031;PMS5003;49185;42.320;23.198;2023-02-01T01:57:35;10.00;8.75;3.00
72031;PMS5003;49185;42.320;23.198;2023-02-01T02:00:13;5.25;4.50;2.25
72031;PMS5003;49185;42.320;23.198;2023-02-01T02:02:41;4.00;4.00;1.00
72031;PMS5003;49185;42.320;23.198;2023-02-01T02:05:10;4.00;4.00;0.00
72031;PMS5003;49185;42.320;23.198;2023-02-01T02:07:38;3.00;3.00;0.00
72031;PMS5003;49185;42.320;23.198;2023-02-01T02:10:09;3.00;2.00;0.00
72031;PMS5003;49185;42.320;23.198;2023-02-01T02:12:39;2.00;2.00;0.00
72031;PMS5003;49185;42.320;23.198;2023-02-01T02:15:07;4.00;3.00;0.00
72031;PMS5003;49185;42.320;23.198;2023-02-01T02:17:58;3.00;3.00;0.00
72031;PMS5003;49185;42.320;23.198;2023-02-01T02:25:52;3.00;3.00;0.00
72031;PMS5003;49185;42.320;23.198;2023-02-01T02:31:40;6.50;6.00;2.00
72031;PMS5003;49185;42.320;23.198;2023-02-01T02:40:02;15.50;12.25;5.75
72031;PMS5003;49185;42.320;23.198;2023-02-01T02:42:33;16.00;15.00;7.00
72031;PMS5003;49185;42.320;23.198;2023-02-01T02:45:28;13.00;12.00;4.25
72031;PMS5003;49185;42.320;23.198;2023-02-01T02:48:16;11.25;11.00;4.00
72031;PMS5003;49185;42.320;23.198;2023-02-01T02:51:12;16.00;15.50;9.00
72031;PMS5003;49185;42.320;23.198;2023-02-01T02:54:24;20.25;19.00;12.00
72031;PMS5003;49185;42.320;23.198;2023-02-01T02:56:44;16.00;15.00;7.00
72031;PMS5003;49185;42.320;23.198;2023-02-01T02:59:09;9.00;8.00;2.33
72031;PMS5003;49185;42.320;23.198;2023-02-01T03:01:39;6.00;5.00;3.00
72031;PMS5003;49185;42.320;23.198;2023-02-01T03:04:06;4.00;3.50;1.00
72031;PMS5003;49185;42.320;23.198;2023-02-01T03:06:31;6.00;6.00;2.00
72031;PMS5003;49185;42.320;23.198;2023-02-01T03:08:57;4.25;4.25;2.75
72031;PMS5003;49185;42.320;23.198;2023-02-01T03:11:26;4.75;4.75;2.00
72031;PMS5003;49185;42.320;23.198;2023-02-01T03:13:59;4.50;4.00;2.00
72031;PMS5003;49185;42.320;23.198;2023-02-01T03:16:34;6.00;6.00;1.75
72031;PMS5003;49185;42.320;23.198;2023-02-01T03:19:09;5.00;5.00;1.00
72031;PMS5003;49185;42.320;23.198;2023-02-01T03:24:25;7.00;5.50;2.75
72031;PMS5003;49185;42.320;23.198;2023-02-01T03:26:54;6.00;6.00;1.00
72031;PMS5003;49185;42.320;23.198;2023-02-01T03:29:25;8.00;7.00;3.00
72031;PMS5003;49185;42.320;23.198;2023-02-01T03:31:58;9.00;7.50;3.50
72031;PMS5003;49185;42.320;23.198;2023-02-01T03:34:24;13.33;12.33;5.00
72031;PMS5003;49185;42.320;23.198;2023-02-01T03:36:55;14.00;12.33;5.00
72031;PMS5003;49185;42.320;23.198;2023-02-01T03:39:28;14.50;13.75;5.25
72031;PMS5003;49185;42.320;23.198;2023-02-01T03:42:00;13.00;13.00;4.00
72031;PMS5003;49185;42.320;23.198;2023-02-01T03:47:03;12.00;9.00;4.00
72031;PMS5003;49185;42.320;23.198;2023-02-01T03:52:05;4.00;4.00;1.00
72031;PMS5003;49185;42.320;23.198;2023-02-01T03:54:36;3.00;3.00;1.00
72031;PMS5003;49185;42.320;23.198;2023-02-01T03:57:04;3.00;3.00;0.00
72031;PMS5003;49185;42.320;23.198;2023-02-01T03:59:38;6.00;6.00;1.75
72031;PMS5003;49185;42.320;23.198;2023-02-01T04:02:07;8.50;6.00;3.00
72031;PMS5003;49185;42.320;23.198;2023-02-01T04:04:33;13.00;9.50;3.25
72031;PMS5003;49185;42.320;23.198;2023-02-01T04:06:59;13.00;11.00;3.00
72031;PMS5003;49185;42.320;23.198;2023-02-01T04:09:25;7.33;6.00;2.00
72031;PMS5003;49185;42.320;23.198;2023-02-01T04:11:50;5.00;4.00;2.00
72031;PMS5003;49185;42.320;23.198;2023-02-01T04:14:16;6.00;6.00;3.00
72031;PMS5003;49185;42.320;23.198;2023-02-01T04:16:41;6.00;6.00;3.00
72031;PMS5003;49185;42.320;23.198;2023-02-01T04:19:07;10.00;9.67;5.00
72031;PMS5003;49185;42.320;23.198;2023-02-01T04:21:32;12.33;11.33;6.00
72031;PMS5003;49185;42.320;23.198;2023-02-01T04:23:57;9.00;7.00;3.00
72031;PMS5003;49185;42.320;23.198;2023-02-01T04:26:23;5.00;5.00;2.00
72031;PMS5003;49185;42.320;23.198;2023-02-01T04:28:48;5.67;5.00;1.67
72031;PMS5003;49185;42.320;23.198;2023-02-01T04:31:14;4.00;4.00;2.00
72031;PMS5003;49185;42.320;23.198;2023-02-01T04:33:40;5.25;5.25;2.25
72031;PMS5003;49185;42.320;23.198;2023-02-01T04:36:06;3.00;3.00;1.00
72031;PMS5003;49185;42.320;23.198;2023-02-01T04:38:31;4.67;4.33;1.00
72031;PMS5003;49185;42.320;23.198;2023-02-01T04:40:57;4.50;3.50;2.00
72031;PMS5003;49185;42.320;23.198;2023-02-01T04:43:23;6.00;6.00;2.00
72031;PMS5003;49185;42.320;23.198;2023-02-01T04:45:49;3.00;3.00;2.00
72031;PMS5003;49185;42.320;23.198;2023-02-01T04:48:15;3.00;3.00;2.00
72031;PMS5003;49185;42.320;23.198;2023-02-01T04:50:42;3.00;3.00;2.00
72031;PMS5003;49185;42.320;23.198;2023-02-01T04:53:09;7.00;6.50;2.00
72031;PMS5003;49185;42.320;23.198;2023-02-01T04:55:34;7.00;7.00;3.00
72031;PMS5003;49185;42.320;23.198;2023-02-01T04:58:00;5.00;5.00;1.67
72031;PMS5003;49185;42.320;23.198;2023-02-01T05:00:25;3.00;3.00;1.67
72031;PMS5003;49185;42.320;23.198;2023-02-01T05:02:51;8.00;8.00;3.00
72031;PMS5003;49185;42.320;23.198;2023-02-01T05:05:16;12.67;12.33;6.00
72031;PMS5003;49185;42.320;23.198;2023-02-01T05:07:41;10.00;8.33;4.00
72031;PMS5003;49185;42.320;23.198;2023-02-01T05:10:07;9.00;6.00;3.00
72031;PMS5003;49185;42.320;23.198;2023-02-01T05:12:33;4.25;3.00;3.00
72031;PMS5003;49185;42.320;23.198;2023-02-01T05:14:58;5.67;5.00;2.00
72031;PMS5003;49185;42.320;23.198;2023-02-01T05:17:24;7.00;7.00;3.00
72031;PMS5003;49185;42.320;23.198;2023-02-01T05:19:50;6.33;5.33;3.00
72031;PMS5003;49185;42.320;23.198;2023-02-01T05:22:15;7.33;7.33;3.00
72031;PMS5003;49185;42.320;23.198;2023-02-01T05:24:40;10.00;10.00;6.00
72031;PMS5003;49185;42.320;23.198;2023-02-01T05:27:06;8.67;8.67;4.00
72031;PMS5003;49185;42.320;23.198;2023-02-01T05:29:31;12.00;11.33;6.00
72031;PMS5003;49185;42.320;23.198;2023-02-01T05:31:57;20.00;18.33;8.67
72031;PMS5003;49185;42.320;23.198;2023-02-01T05:34:22;22.33;18.67;10.33
72031;PMS5003;49185;42.320;23.198;2023-02-01T05:36:47;18.33;16.00;7.00
72031;PMS5003;49185;42.320;23.198;2023-02-01T05:39:13;10.00;8.33;3.00
72031;PMS5003;49185;42.320;23.198;2023-02-01T05:41:38;14.67;14.00;7.00
72031;PMS5003;49185;42.320;23.198;2023-02-01T05:44:04;23.67;21.33;12.00
72031;PMS5003;49185;42.320;23.198;2023-02-01T05:46:29;17.33;17.00;9.67
72031;PMS5003;49185;42.320;23.198;2023-02-01T05:48:55;10.67;9.33;3.00
72031;PMS5003;49185;42.320;23.198;2023-02-01T05:51:20;3.00;3.00;1.00
72031;PMS5003;49185;42.320;23.198;2023-02-01T05:53:45;31.33;27.00;17.00
72031;PMS5003;49185;42.320;23.198;2023-02-01T05:56:11;26.00;23.00;11.33
72031;PMS5003;49185;42.320;23.198;2023-02-01T05:58:36;10.67;9.33;3.00
72031;PMS5003;49185;42.320;23.198;2023-02-01T06:01:02;8.00;7.00;3.00
72031;PMS5003;49185;42.320;23.198;2023-02-01T06:03:28;10.50;10.00;5.00
72031;PMS5003;49185;42.320;23.198;2023-02-01T06:05:54;10.50;9.25;4.00
72031;PMS5003;49185;42.320;23.198;2023-02-01T06:08:20;10.00;9.00;4.00
72031;PMS5003;49185;42.320;23.198;2023-02-01T06:10:46;10.00;9.00;4.25
72031;PMS5003;49185;42.320;23.198;2023-02-01T06:13:11;32.67;26.33;16.00
72031;PMS5003;49185;42.320;23.198;2023-02-01T06:15:37;45.00;36.00;22.33
72031;PMS5003;49185;42.320;23.198;2023-02-01T06:18:03;41.00;34.00;21.00
72031;PMS5003;49185;42.320;23.198;2023-02-01T06:20:28;35.50;28.00;18.00
72031;PMS5003;49185;42.320;23.198;2023-02-01T06:22:54;35.75;29.00;17.00
72031;PMS5003;49185;42.320;23.198;2023-02-01T06:25:20;38.33;30.33;19.00
72031;PMS5003;49185;42.320;23.198;2023-02-01T06:27:45;39.50;32.75;20.25
72031;PMS5003;49185;42.320;23.198;2023-02-01T06:30:11;44.33;36.00;22.67
72031;PMS5003;49185;42.320;23.198;2023-02-01T06:32:37;38.50;31.75;21.00
72031;PMS5003;49185;42.320;23.198;2023-02-01T06:35:03;27.00;24.67;15.67
72031;PMS5003;49185;42.320;23.198;2023-02-01T06:37:28;22.00;21.00;13.25
72031;PMS5003;49185;42.320;23.198;2023-02-01T06:39:54;20.00;17.33;11.00
72031;PMS5003;49185;42.320;23.198;2023-02-01T06:42:19;11.33;8.33;3.33
72031;PMS5003;49185;42.320;23.198;2023-02-01T06:44:45;5.33;4.00;2.00
72031;PMS5003;49185;42.320;23.198;2023-02-01T06:47:10;7.00;7.00;2.33
72031;PMS5003;49185;42.320;23.198;2023-02-01T06:49:36;12.00;11.00;5.00
72031;PMS5003;49185;42.320;23.198;2023-02-01T06:52:01;14.33;13.33;6.67
72031;PMS5003;49185;42.320;23.198;2023-02-01T06:54:27;18.00;16.00;6.00
72031;PMS5003;49185;42.320;23.198;2023-02-01T06:56:52;22.25;20.25;8.75
72031;PMS5003;49185;42.320;23.198;2023-02-01T06:59:18;25.33;22.00;11.67
72031;PMS5003;49185;42.320;23.198;2023-02-01T07:01:43;19.00;18.33;8.00
72031;PMS5003;49185;42.320;23.198;2023-02-01T07:04:12;18.33;18.00;9.33
72031;PMS5003;49185;42.320;23.198;2023-02-01T07:06:38;10.00;10.00;3.00
72031;PMS5003;49185;42.320;23.198;2023-02-01T07:09:04;3.00;3.00;1.25
72031;PMS5003;49185;42.320;23.198;2023-02-01T07:11:30;6.75;6.75;2.25
72031;PMS5003;49185;42.320;23.198;2023-02-01T07:13:55;14.00;12.00;7.00
72031;PMS5003;49185;42.320;23.198;2023-02-01T07:16:21;25.00;22.67;14.33
72031;PMS5003;49185;42.320;23.198;2023-02-01T07:18:46;39.00;31.33;19.33
72031;PMS5003;49185;42.320;23.198;2023-02-01T07:21:12;41.75;34.00;21.00
72031;PMS5003;49185;42.320;23.198;2023-02-01T07:23:38;38.33;31.00;18.33
72031;PMS5003;49185;42.320;23.198;2023-02-01T07:26:04;31.00;27.33;16.00
72031;PMS5003;49185;42.320;23.198;2023-02-01T07:28:32;32.75;28.00;15.00
72031;PMS5003;49185;42.320;23.198;2023-02-01T07:31:06;31.00;26.00;15.00
72031;PMS5003;49185;42.320;23.198;2023-02-01T07:33:33;23.25;22.00;11.25
72031;PMS5003;49185;42.320;23.198;2023-02-01T07:36:00;25.50;23.00;14.50
72031;PMS5003;49185;42.320;23.198;2023-02-01T07:38:27;28.00;25.00;15.00
72031;PMS5003;49185;42.320;23.198;2023-02-01T07:40:57;61.00;49.25;26.75
72031;PMS5003;49185;42.320;23.198;2023-02-01T07:43:23;54.50;40.75;23.25
72031;PMS5003;49185;42.320;23.198;2023-02-01T07:45:52;35.33;27.67;16.00
72031;PMS5003;49185;42.320;23.198;2023-02-01T07:48:18;25.25;23.00;14.00
72031;PMS5003;49185;42.320;23.198;2023-02-01T07:50:44;23.50;21.75;14.00
72031;PMS5003;49185;42.320;23.198;2023-02-01T07:53:10;27.00;24.00;14.33
72031;PMS5003;49185;42.320;23.198;2023-02-01T07:55:38;25.67;23.33;15.00
72031;PMS5003;49185;42.320;23.198;2023-02-01T07:58:04;24.50;22.50;15.00
72031;PMS5003;49185;42.320;23.198;2023-02-01T08:00:30;28.33;24.33;16.00
72031;PMS5003;49185;42.320;23.198;2023-02-01T08:02:58;29.00;26.00;17.00
72031;PMS5003;49185;42.320;23.198;2023-02-01T08:05:24;25.00;23.50;15.00
72031;PMS5003;49185;42.320;23.198;2023-02-01T08:07:49;32.00;26.33;16.33
72031;PMS5003;49185;42.320;23.198;2023-02-01T08:10:16;33.50;27.00;17.00
72031;PMS5003;49185;42.320;23.198;2023-02-01T08:12:42;37.75;30.25;18.00
72031;PMS5003;49185;42.320;23.198;2023-02-01T08:15:08;33.33;28.00;18.00
72031;PMS5003;49185;42.320;23.198;2023-02-01T08:17:33;33.50;27.25;17.00
72031;PMS5003;49185;42.320;23.198;2023-02-01T08:19:59;28.00;25.00;17.00
72031;PMS5003;49185;42.320;23.198;2023-02-01T08:22:24;26.00;24.00;16.00
72031;PMS5003;49185;42.320;23.198;2023-02-01T08:24:49;26.00;24.00;16.00
72031;PMS5003;49185;42.320;23.198;2023-02-01T08:27:15;21.33;20.33;15.00
72031;PMS5003;49185;42.320;23.198;2023-02-01T08:29:40;21.00;20.00;15.00
72031;PMS5003;49185;42.320;23.198;2023-02-01T08:32:06;32.67;27.67;17.00
72031;PMS5003;49185;42.320;23.198;2023-02-01T08:34:31;29.00;25.67;16.00
72031;PMS5003;49185;42.320;23.198;2023-02-01T08:36:57;19.00;17.25;11.00
72031;PMS5003;49185;42.320;23.198;2023-02-01T08:39:23;16.33;15.00;8.00
72031;PMS5003;49185;42.320;23.198;2023-02-01T08:41:49;20.75;18.75;12.50
72031;PMS5003;49185;42.320;23.198;2023-02-01T08:44:14;25.00;21.33;15.00
72031;PMS5003;49185;42.320;23.198;2023-02-01T08:46:39;30.00;26.00;17.33
72031;PMS5003;49185;42.320;23.198;2023-02-01T08:49:05;32.67;27.67;17.33
72031;PMS5003;49185;42.320;23.198;2023-02-01T08:51:30;35.33;29.00;19.00
72031;PMS5003;49185;42.320;23.198;2023-02-01T08:53:56;31.33;26.00;17.00
72031;PMS5003;49185;42.320;23.198;2023-02-01T08:56:21;27.00;24.67;16.33
72031;PMS5003;49185;42.320;23.198;2023-02-01T08:58:46;30.00;25.00;17.00
72031;PMS5003;49185;42.320;23.198;2023-02-01T09:01:13;26.67;23.33;15.33
72031;PMS5003;49185;42.320;23.198;2023-02-01T09:03:40;21.25;21.00;12.00
72031;PMS5003;49185;42.320;23.198;2023-02-01T09:06:09;13.00;13.00;5.00
72031;PMS5003;49185;42.320;23.198;2023-02-01T09:08:37;8.75;8.75;3.50
72031;PMS5003;49185;42.320;23.198;2023-02-01T09:11:07;11.25;11.25;6.50
72031;PMS5003;49185;42.320;23.198;2023-02-01T09:13:36;24.50;23.00;13.75
72031;PMS5003;49185;42.320;23.198;2023-02-01T09:16:02;29.00;24.33;16.33
72031;PMS5003;49185;42.320;23.198;2023-02-01T09:18:28;42.00;32.75;20.50
72031;PMS5003;49185;42.320;23.198;2023-02-01T09:20:54;48.33;37.00;24.00
72031;PMS5003;49185;42.320;23.198;2023-02-01T09:23:19;45.00;36.33;23.00
72031;PMS5003;49185;42.320;23.198;2023-02-01T09:25:45;43.00;35.00;21.33
72031;PMS5003;49185;42.320;23.198;2023-02-01T09:28:10;41.67;33.33;20.33
72031;PMS5003;49185;42.320;23.198;2023-02-01T09:30:36;29.67;26.33;16.00
72031;PMS5003;49185;42.320;23.198;2023-02-01T09:33:02;20.25;19.25;13.00
72031;PMS5003;49185;42.320;23.198;2023-02-01T09:35:28;36.50;28.50;18.25
72031;PMS5003;49185;42.320;23.198;2023-02-01T09:37:53;30.00;25.67;16.00
72031;PMS5003;49185;42.320;23.198;2023-02-01T09:40:19;14.00;14.00;6.25
72031;PMS5003;49185;42.320;23.198;2023-02-01T09:48:41;8.00;7.00;2.00
72031;PMS5003;49185;42.320;23.198;2023-02-01T09:51:16;4.00;4.00;2.00
72031;PMS5003;49185;42.320;23.198;2023-02-01T09:53:48;3.00;2.50;0.00
72031;PMS5003;49185;42.320;23.198;2023-02-01T09:56:31;3.25;3.25;0.00
72031;PMS5003;49185;42.320;23.198;2023-02-01T10:01:39;4.00;3.00;1.00
72031;PMS5003;49185;42.320;23.198;2023-02-01T10:04:06;4.00;3.00;1.00
72031;PMS5003;49185;42.320;23.198;2023-02-01T10:26:39;11.25;10.00;4.75
72031;PMS5003;49185;42.320;23.198;2023-02-01T10:29:15;15.00;11.50;5.25
72031;PMS5003;49185;42.320;23.198;2023-02-01T10:31:45;13.00;10.50;5.00
72031;PMS5003;49185;42.320;23.198;2023-02-01T10:34:18;14.25;11.50;5.75
72031;PMS5003;49185;42.320;23.198;2023-02-01T10:36:52;35.00;28.50;16.50
72031;PMS5003;49185;42.320;23.198;2023-02-01T10:39:21;23.50;21.00;9.50
72031;PMS5003;49185;42.320;23.198;2023-02-01T10:41:48;18.25;16.75;8.75
72031;PMS5003;49185;42.320;23.198;2023-02-01T10:44:15;13.00;11.50;4.00
72031;PMS5003;49185;42.320;23.198;2023-02-01T10:46:43;8.00;6.00;3.00
72031;PMS5003;49185;42.320;23.198;2023-02-01T10:49:13;6.67;6.00;2.67
72031;PMS5003;49185;42.320;23.198;2023-02-01T10:52:12;13.50;11.75;6.00
72031;PMS5003;49185;42.320;23.198;2023-02-01T10:54:42;14.00;12.00;6.00
72031;PMS5003;49185;42.320;23.198;2023-02-01T10:57:10;34.00;29.67;18.00
72031;PMS5003;49185;42.320;23.198;2023-02-01T10:59:47;50.75;41.00;25.25
72031;PMS5003;49185;42.320;23.198;2023-02-01T11:02:18;40.00;33.00;21.00
72031;PMS5003;49185;42.320;23.198;2023-02-01T11:04:57;29.75;25.00;17.00
72031;PMS5003;49185;42.320;23.198;2023-02-01T11:07:25;12.25;12.25;5.75
72031;PMS5003;49185;42.320;23.198;2023-02-01T11:09:52;11.50;11.00;5.25
72031;PMS5003;49185;42.320;23.198;2023-02-01T11:12:37;7.00;6.00;3.00
72031;PMS5003;49185;42.320;23.198;2023-02-01T11:15:13;5.00;5.00;2.50
72031;PMS5003;49185;42.320;23.198;2023-02-01T11:17:44;5.00;5.00;3.00
72031;PMS5003;49185;42.320;23.198;2023-02-01T11:20:15;5.50;5.00;2.00
72031;PMS5003;49185;42.320;23.198;2023-02-01T11:22:47;5.00;5.00;2.00
72031;PMS5003;49185;42.320;23.198;2023-02-01T11:25:17;5.00;5.00;3.00
72031;PMS5003;49185;42.320;23.198;2023-02-01T11:27:43;5.00;5.00;2.00
72031;PMS5003;49185;42.320;23.198;2023-02-01T11:30:21;6.50;5.50;3.50
72031;PMS5003;49185;42.320;23.198;2023-02-01T11:33:09;30.00;26.50;15.50
72031;PMS5003;49185;42.320;23.198;2023-02-01T11:35:40;34.75;28.00;17.00
72031;PMS5003;49185;42.320;23.198;2023-02-01T11:38:12;26.25;22.75;13.00
72031;PMS5003;49185;42.320;23.198;2023-02-01T11:41:13;9.50;6.25;2.00
72031;PMS5003;49185;42.320;23.198;2023-02-01T11:43:56;0.00;0.00;0.00
72031;PMS5003;49185;42.320;23.198;2023-02-01T11:46:26;1.25;0.75;0.00
72031;PMS5003;49185;42.320;23.198;2023-02-01T11:48:57;0.00;0.00;0.00
72031;PMS5003;49185;42.320;23.198;2023-02-01T11:59:56;14.00;11.75;4.50
72031;PMS5003;49185;42.320;23.198;2023-02-01T12:10:44;9.25;7.50;2.00
72031;PMS5003;49185;42.320;23.198;2023-02-01T12:19:15;10.50;7.75;1.75
72031;PMS5003;49185;42.320;23.198;2023-02-01T12:21:53;1.00;0.00;0.00
72031;PMS5003;49185;42.320;23.198;2023-02-01T12:25:05;0.00;0.00;0.00
72031;PMS5003;49185;42.320;23.198;2023-02-01T12:44:16;1.75;1.00;0.50
72031;PMS5003;49185;42.320;23.198;2023-02-01T12:50:05;4.50;2.25;0.00
72031;PMS5003;49185;42.320;23.198;2023-02-01T12:52:44;1.25;1.25;0.00
72031;PMS5003;49185;42.320;23.198;2023-02-01T12:58:03;1.00;1.00;0.00
72031;PMS5003;49185;42.320;23.198;2023-02-01T13:00:49;0.00;0.00;0.00
72031;PMS5003;49185;42.320;23.198;2023-02-01T13:03:44;0.00;0.00;0.00
72031;PMS5003;49185;42.320;23.198;2023-02-01T13:06:23;0.00;0.00;0.00
72031;PMS5003;49185;42.320;23.198;2023-02-01T13:11:44;0.75;0.00;0.00
72031;PMS5003;49185;42.320;23.198;2023-02-01T13:17:03;1.50;1.50;0.00
72031;PMS5003;49185;42.320;23.198;2023-02-01T13:27:55;0.00;0.00;0.00
72031;PMS5003;49185;42.320;23.198;2023-02-01T13:33:22;0.00;0.00;0.00
72031;PMS5003;49185;42.320;23.198;2023-02-01T13:36:05;0.00;0.00;0.00
72031;PMS5003;49185;42.320;23.198;2023-02-01T13:41:41;7.00;5.75;0.00
72031;PMS5003;49185;42.320;23.198;2023-02-01T13:44:16;15.50;14.50;5.25
72031;PMS5003;49185;42.320;23.198;2023-02-01T13:46:49;2.75;1.75;0.00
72031;PMS5003;49185;42.320;23.198;2023-02-01T13:49:20;1.00;0.00;0.00
72031;PMS5003;49185;42.320;23.198;2023-02-01T13:51:51;0.00;0.00;0.00
72031;PMS5003;49185;42.320;23.198;2023-02-01T13:54:33;13.25;12.50;7.50
72031;PMS5003;49185;42.320;23.198;2023-02-01T13:57:04;22.50;22.00;13.50
72031;PMS5003;49185;42.320;23.198;2023-02-01T14:13:21;0.00;0.00;0.00
72031;PMS5003;49185;42.320;23.198;2023-02-01T14:23:38;0.00;0.00;0.00
72031;PMS5003;49185;42.320;23.198;2023-02-01T14:26:07;0.00;0.00;0.00
72031;PMS5003;49185;42.320;23.198;2023-02-01T14:28:35;0.00;0.00;0.00
72031;PMS5003;49185;42.320;23.198;2023-02-01T14:31:22;0.00;0.00;0.00
72031;PMS5003;49185;42.320;23.198;2023-02-01T14:33:53;0.00;0.00;0.00
72031;PMS5003;49185;42.320;23.198;2023-02-01T14:36:22;0.00;0.00;0.00
72031;PMS5003;49185;42.320;23.198;2023-02-01T14:38:49;0.00;0.00;0.00
72031;PMS5003;49185;42.320;23.198;2023-02-01T14:49:32;0.75;0.00;0.00
72031;PMS5003;49185;42.320;23.198;2023-02-01T14:52:00;0.00;0.00;0.00
72031;PMS5003;49185;42.320;23.198;2023-02-01T14:54:30;0.00;0.00;0.00
72031;PMS5003;49185;42.320;23.198;2023-02-01T14:56:56;0.00;0.00;0.00
72031;PMS5003;49185;42.320;23.198;2023-02-01T14:59:23;0.00;0.00;0.00
72031;PMS5003;49185;42.320;23.198;2023-02-01T15:01:55;0.25;0.25;0.00
72031;PMS5003;49185;42.320;23.198;2023-02-01T15:04:25;1.25;1.25;0.00
72031;PMS5003;49185;42.320;23.198;2023-02-01T15:06:53;1.00;1.00;0.00
72031;PMS5003;49185;42.320;23.198;2023-02-01T15:09:28;0.00;0.00;0.00
72031;PMS5003;49185;42.320;23.198;2023-02-01T15:14:29;0.00;0.00;0.00
72031;PMS5003;49185;42.320;23.198;2023-02-01T15:17:01;0.00;0.00;0.00
72031;PMS5003;49185;42.320;23.198;2023-02-01T15:19:28;0.00;0.00;0.00
72031;PMS5003;49185;42.320;23.198;2023-02-01T15:21:56;0.00;0.00;0.00
72031;PMS5003;49185;42.320;23.198;2023-02-01T15:24:26;0.00;0.00;0.00
72031;PMS5003;49185;42.320;23.198;2023-02-01T15:26:56;0.00;0.00;0.00
72031;PMS5003;49185;42.320;23.198;2023-02-01T15:29:30;1.75;1.75;0.00
72031;PMS5003;49185;42.320;23.198;2023-02-01T15:31:56;8.75;7.00;3.50
72031;PMS5003;49185;42.320;23.198;2023-02-01T15:34:22;1.00;1.00;0.00
72031;PMS5003;49185;42.320;23.198;2023-02-01T15:36:47;0.00;0.00;0.00
72031;PMS5003;49185;42.320;23.198;2023-02-01T15:41:50;0.00;0.00;0.00
72031;PMS5003;49185;42.320;23.198;2023-02-01T15:46:47;3.25;1.75;0.00
72031;PMS5003;49185;42.320;23.198;2023-02-01T15:49:36;5.25;4.00;1.50
72031;PMS5003;49185;42.320;23.198;2023-02-01T15:52:08;29.25;26.50;16.50
72031;PMS5003;49185;42.320;23.198;2023-02-01T15:54:46;53.25;41.50;25.50
72031;PMS5003;49185;42.320;23.198;2023-02-01T15:57:22;56.75;44.75;26.50
72031;PMS5003;49185;42.320;23.198;2023-02-01T15:59:54;52.50;42.00;26.00
72031;PMS5003;49185;42.320;23.198;2023-02-01T16:02:35;45.67;36.67;22.33
72031;PMS5003;49185;42.320;23.198;2023-02-01T16:05:21;35.50;29.00;18.00
72031;PMS5003;49185;42.320;23.198;2023-02-01T16:07:57;46.50;37.75;24.50
72031;PMS5003;49185;42.320;23.198;2023-02-01T16:10:26;50.25;40.00;25.50
72031;PMS5003;49185;42.320;23.198;2023-02-01T16:12:52;53.75;43.00;26.50
72031;PMS5003;49185;42.320;23.198;2023-02-01T16:15:17;55.00;42.67;26.00
72031;PMS5003;49185;42.320;23.198;2023-02-01T16:17:43;50.33;40.00;24.00
72031;PMS5003;49185;42.320;23.198;2023-02-01T16:20:09;46.67;38.00;23.00
72031;PMS5003;49185;42.320;23.198;2023-02-01T16:22:34;47.75;37.25;22.25
72031;PMS5003;49185;42.320;23.198;2023-02-01T16:25:00;47.00;37.33;24.00
72031;PMS5003;49185;42.320;23.198;2023-02-01T16:27:25;52.67;41.33;26.00
72031;PMS5003;49185;42.320;23.198;2023-02-01T16:29:51;52.00;41.33;26.00
72031;PMS5003;49185;42.320;23.198;2023-02-01T16:32:17;52.00;40.33;25.33
72031;PMS5003;49185;42.320;23.198;2023-02-01T16:34:45;60.75;51.25;30.00
72031;PMS5003;49185;42.320;23.198;2023-02-01T16:37:15;57.50;46.75;28.00
72031;PMS5003;49185;42.320;23.198;2023-02-01T16:39:44;46.00;37.00;24.00
72031;PMS5003;49185;42.320;23.198;2023-02-01T16:42:13;43.67;35.33;23.00